sensor_id;sensor_type;location;lat;lon;timestamp;P1;durP1;ratioP1;P2;durP2;ratioP2
7289;SDS011;63176;52.678;13.250;2023-07-29T00:00:37;3.90;;;3.40;;
7289;SDS011;63176;52.678;13.250;2023-07-29T00:03:02;6.70;;;4.03;;
7289;SDS011;63176;52.678;13.250;2023-07-29T00:05:28;4.30;;;3.90;;
7289;SDS011;63176;52.678;13.250;2023-07-29T00:07:54;4.80;;;3.73;;
7289;SDS011;63176;52.678;13.250;2023-07-29T00:10:19;4.10;;;3.70;;
7289;SDS011;63176;52.678;13.250;2023-07-29T00:12:45;6.53;;;4.43;;
7289;SDS011;63176;52.678;13.250;2023-07-29T00:15:11;11.57;;;3.97;;
7289;SDS011;63176;52.678;13.250;2023-07-29T00:17:37;7.77;;;3.50;;
7289;SDS011;63176;52.678;13.250;2023-07-29T00:20:02;5.37;;;3.37;;
7289;SDS011;63176;52.678;13.250;2023-07-29T00:22:28;4.17;;;3.77;;
7289;SDS011;63176;52.678;13.250;2023-07-29T00:24:54;10.27;;;4.87;;
7289;SDS011;63176;52.678;13.250;2023-07-29T00:27:20;4.00;;;3.60;;
7289;SDS011;63176;52.678;13.250;2023-07-29T00:29:46;5.23;;;3.93;;
7289;SDS011;63176;52.678;13.250;2023-07-29T00:32:12;6.50;;;4.20;;
7289;SDS011;63176;52.678;13.250;2023-07-29T00:34:37;8.00;;;4.07;;
7289;SDS011;63176;52.678;13.250;2023-07-29T00:37:03;7.70;;;4.30;;
7289;SDS011;63176;52.678;13.250;2023-07-29T00:39:30;9.63;;;4.20;;
7289;SDS011;63176;52.678;13.250;2023-07-29T00:41:57;5.63;;;3.90;;
7289;SDS011;63176;52.678;13.250;2023-07-29T00:44:22;6.57;;;4.10;;
7289;SDS011;63176;52.678;13.250;2023-07-29T00:46:49;9.90;;;4.20;;
7289;SDS011;63176;52.678;13.250;2023-07-29T00:49:17;6.67;;;4.47;;
7289;SDS011;63176;52.678;13.250;2023-07-29T00:51:43;6.40;;;4.07;;
7289;SDS011;63176;52.678;13.250;2023-07-29T00:54:09;4.37;;;3.83;;
7289;SDS011;63176;52.678;13.250;2023-07-29T00:56:34;4.40;;;4.00;;
7289;SDS011;63176;52.678;13.250;2023-07-29T00:59:01;7.73;;;3.60;;
7289;SDS011;63176;52.678;13.250;2023-07-29T01:01:30;6.50;;;4.17;;
7289;SDS011;63176;52.678;13.250;2023-07-29T01:03:56;5.03;;;3.90;;
7289;SDS011;63176;52.678;13.250;2023-07-29T01:11:48;4.57;;;3.60;;
7289;SDS011;63176;52.678;13.250;2023-07-29T01:17:04;7.20;;;4.47;;
7289;SDS011;63176;52.678;13.250;2023-07-29T01:19:41;5.53;;;3.80;;
7289;SDS011;63176;52.678;13.250;2023-07-29T01:22:32;5.87;;;4.50;;
7289;SDS011;63176;52.678;13.250;2023-07-29T01:24:59;15.30;;;4.93;;
7289;SDS011;63176;52.678;13.250;2023-07-29T01:27:25;9.37;;;4.60;;
7289;SDS011;63176;52.678;13.250;2023-07-29T01:29:51;6.37;;;4.43;;
7289;SDS011;63176;52.678;13.250;2023-07-29T01:37:59;7.07;;;4.47;;
7289;SDS011;63176;52.678;13.250;2023-07-29T01:41:03;7.60;;;4.50;;
7289;SDS011;63176;52.678;13.250;2023-07-29T01:43:31;7.03;;;4.63;;
7289;SDS011;63176;52.678;13.250;2023-07-29T01:45:58;6.30;;;4.00;;
7289;SDS011;63176;52.678;13.250;2023-07-29T01:48:23;5.27;;;3.47;;
7289;SDS011;63176;52.678;13.250;2023-07-29T01:50:49;6.03;;;4.07;;
7289;SDS011;63176;52.678;13.250;2023-07-29T01:53:15;5.00;;;3.50;;
7289;SDS011;63176;52.678;13.250;2023-07-29T01:55:42;5.20;;;4.00;;
7289;SDS011;63176;52.678;13.250;2023-07-29T01:58:09;7.20;;;3.47;;
7289;SDS011;63176;52.678;13.250;2023-07-29T02:00:35;4.27;;;3.87;;
7289;SDS011;63176;52.678;13.250;2023-07-29T02:03:01;5.23;;;4.37;;
7289;SDS011;63176;52.678;13.250;2023-07-29T02:05:26;7.93;;;3.93;;
7289;SDS011;63176;52.678;13.250;2023-07-29T02:07:52;8.20;;;4.63;;
7289;SDS011;63176;52.678;13.250;2023-07-29T02:10:18;12.13;;;4.67;;
7289;SDS011;63176;52.678;13.250;2023-07-29T02:12:43;6.33;;;3.83;;
7289;SDS011;63176;52.678;13.250;2023-07-29T02:15:09;5.40;;;4.20;;
7289;SDS011;63176;52.678;13.250;2023-07-29T02:17:35;8.73;;;4.50;;
7289;SDS011;63176;52.678;13.250;2023-07-29T02:20:01;5.30;;;4.30;;
7289;SDS011;63176;52.678;13.250;2023-07-29T02:22:29;6.43;;;4.20;;
7289;SDS011;63176;52.678;13.250;2023-07-29T02:24:54;10.37;;;4.50;;
7289;SDS011;63176;52.678;13.250;2023-07-29T02:27:20;4.40;;;3.77;;
7289;SDS011;63176;52.678;13.250;2023-07-29T02:29:46;6.63;;;4.30;;
7289;SDS011;63176;52.678;13.250;2023-07-29T02:32:12;4.90;;;3.77;;
7289;SDS011;63176;52.678;13.250;2023-07-29T02:34:37;4.80;;;3.70;;
7289;SDS011;63176;52.678;13.250;2023-07-29T02:37:03;7.47;;;4.70;;
7289;SDS011;63176;52.678;13.250;2023-07-29T02:39:30;3.60;;;3.30;;
7289;SDS011;63176;52.678;13.250;2023-07-29T02:41:56;7.70;;;3.90;;
7289;SDS011;63176;52.678;13.250;2023-07-29T02:44:23;5.13;;;3.60;;
7289;SDS011;63176;52.678;13.250;2023-07-29T02:46:49;15.93;;;4.93;;
7289;SDS011;63176;52.678;13.250;2023-07-29T02:49:15;6.10;;;3.77;;
7289;SDS011;63176;52.678;13.250;2023-07-29T02:51:40;4.33;;;3.93;;
7289;SDS011;63176;52.678;13.250;2023-07-29T02:54:06;5.87;;;3.60;;
7289;SDS011;63176;52.678;13.250;2023-07-29T02:56:31;7.43;;;3.30;;
7289;SDS011;63176;52.678;13.250;2023-07-29T02:58:57;5.10;;;4.00;;
7289;SDS011;63176;52.678;13.250;2023-07-29T03:01:23;6.17;;;3.80;;
7289;SDS011;63176;52.678;13.250;2023-07-29T03:03:52;7.20;;;4.07;;
7289;SDS011;63176;52.678;13.250;2023-07-29T03:06:18;6.97;;;4.50;;
7289;SDS011;63176;52.678;13.250;2023-07-29T03:08:44;5.63;;;4.13;;
7289;SDS011;63176;52.678;13.250;2023-07-29T03:11:13;7.70;;;4.23;;
7289;SDS011;63176;52.678;13.250;2023-07-29T03:13:40;5.73;;;4.43;;
7289;SDS011;63176;52.678;13.250;2023-07-29T03:18:32;7.00;;;4.50;;
7289;SDS011;63176;52.678;13.250;2023-07-29T03:20:58;5.33;;;4.10;;
7289;SDS011;63176;52.678;13.250;2023-07-29T03:23:24;4.83;;;3.93;;
7289;SDS011;63176;52.678;13.250;2023-07-29T03:25:50;9.00;;;3.90;;
7289;SDS011;63176;52.678;13.250;2023-07-29T03:28:21;5.03;;;4.10;;
7289;SDS011;63176;52.678;13.250;2023-07-29T03:30:51;6.13;;;3.90;;
7289;SDS011;63176;52.678;13.250;2023-07-29T03:33:16;4.77;;;4.27;;
7289;SDS011;63176;52.678;13.250;2023-07-29T03:35:42;5.40;;;4.53;;
7289;SDS011;63176;52.678;13.250;2023-07-29T03:38:09;5.77;;;4.77;;
7289;SDS011;63176;52.678;13.250;2023-07-29T03:40:36;5.03;;;4.50;;
7289;SDS011;63176;52.678;13.250;2023-07-29T03:43:06;5.53;;;4.30;;
7289;SDS011;63176;52.678;13.250;2023-07-29T03:45:32;5.90;;;4.73;;
7289;SDS011;63176;52.678;13.250;2023-07-29T03:47:58;8.03;;;6.10;;
7289;SDS011;63176;52.678;13.250;2023-07-29T03:50:24;12.60;;;5.70;;
7289;SDS011;63176;52.678;13.250;2023-07-29T03:52:50;8.63;;;5.50;;
7289;SDS011;63176;52.678;13.250;2023-07-29T03:55:16;7.40;;;6.00;;
7289;SDS011;63176;52.678;13.250;2023-07-29T03:57:41;8.37;;;5.43;;
7289;SDS011;63176;52.678;13.250;2023-07-29T04:00:07;6.63;;;5.30;;
7289;SDS011;63176;52.678;13.250;2023-07-29T04:02:34;9.40;;;5.73;;
7289;SDS011;63176;52.678;13.250;2023-07-29T04:05:02;7.13;;;5.60;;
7289;SDS011;63176;52.678;13.250;2023-07-29T04:07:28;9.93;;;6.40;;
7289;SDS011;63176;52.678;13.250;2023-07-29T04:09:54;6.43;;;5.73;;
7289;SDS011;63176;52.678;13.250;2023-07-29T04:12:20;8.10;;;5.83;;
7289;SDS011;63176;52.678;13.250;2023-07-29T04:14:46;7.33;;;5.77;;
7289;SDS011;63176;52.678;13.250;2023-07-29T04:17:12;11.43;;;5.83;;
7289;SDS011;63176;52.678;13.250;2023-07-29T04:19:38;6.90;;;5.80;;
7289;SDS011;63176;52.678;13.250;2023-07-29T04:22:04;8.77;;;5.33;;
7289;SDS011;63176;52.678;13.250;2023-07-29T04:24:29;8.47;;;5.60;;
7289;SDS011;63176;52.678;13.250;2023-07-29T04:26:55;10.63;;;6.20;;
7289;SDS011;63176;52.678;13.250;2023-07-29T04:29:21;11.00;;;5.70;;
7289;SDS011;63176;52.678;13.250;2023-07-29T04:31:48;9.80;;;5.87;;
7289;SDS011;63176;52.678;13.250;2023-07-29T04:34:14;10.57;;;6.10;;
7289;SDS011;63176;52.678;13.250;2023-07-29T04:36:40;7.33;;;5.77;;
7289;SDS011;63176;52.678;13.250;2023-07-29T04:39:06;6.17;;;5.43;;
7289;SDS011;63176;52.678;13.250;2023-07-29T04:41:31;6.63;;;5.70;;
7289;SDS011;63176;52.678;13.250;2023-07-29T04:43:57;8.03;;;6.10;;
7289;SDS011;63176;52.678;13.250;2023-07-29T04:46:23;8.93;;;6.37;;
7289;SDS011;63176;52.678;13.250;2023-07-29T04:48:48;7.00;;;6.10;;
7289;SDS011;63176;52.678;13.250;2023-07-29T04:51:14;7.93;;;6.13;;
7289;SDS011;63176;52.678;13.250;2023-07-29T04:53:40;10.60;;;6.63;;
7289;SDS011;63176;52.678;13.250;2023-07-29T04:56:05;6.03;;;5.20;;
7289;SDS011;63176;52.678;13.250;2023-07-29T04:58:31;7.30;;;6.40;;
7289;SDS011;63176;52.678;13.250;2023-07-29T05:00:59;8.67;;;6.77;;
7289;SDS011;63176;52.678;13.250;2023-07-29T05:03:25;8.80;;;6.70;;
7289;SDS011;63176;52.678;13.250;2023-07-29T05:05:51;7.20;;;6.00;;
7289;SDS011;63176;52.678;13.250;2023-07-29T05:08:18;8.43;;;7.30;;
7289;SDS011;63176;52.678;13.250;2023-07-29T05:10:44;8.17;;;7.10;;
7289;SDS011;63176;52.678;13.250;2023-07-29T05:13:15;7.43;;;6.57;;
7289;SDS011;63176;52.678;13.250;2023-07-29T05:15:40;7.80;;;7.00;;
7289;SDS011;63176;52.678;13.250;2023-07-29T05:18:06;10.77;;;7.17;;
7289;SDS011;63176;52.678;13.250;2023-07-29T05:20:32;9.63;;;6.83;;
7289;SDS011;63176;52.678;13.250;2023-07-29T05:22:57;8.60;;;7.53;;
7289;SDS011;63176;52.678;13.250;2023-07-29T05:25:23;6.63;;;5.90;;
7289;SDS011;63176;52.678;13.250;2023-07-29T05:27:49;10.50;;;8.10;;
7289;SDS011;63176;52.678;13.250;2023-07-29T05:30:14;8.43;;;7.00;;
7289;SDS011;63176;52.678;13.250;2023-07-29T05:32:40;10.10;;;7.00;;
7289;SDS011;63176;52.678;13.250;2023-07-29T05:35:06;9.03;;;7.70;;
7289;SDS011;63176;52.678;13.250;2023-07-29T05:37:32;7.90;;;7.10;;
7289;SDS011;63176;52.678;13.250;2023-07-29T05:39:58;10.77;;;7.47;;
7289;SDS011;63176;52.678;13.250;2023-07-29T05:42:23;9.53;;;7.47;;
7289;SDS011;63176;52.678;13.250;2023-07-29T05:44:49;8.63;;;7.23;;
7289;SDS011;63176;52.678;13.250;2023-07-29T05:47:15;12.10;;;6.80;;
7289;SDS011;63176;52.678;13.250;2023-07-29T05:49:40;7.67;;;6.87;;
7289;SDS011;63176;52.678;13.250;2023-07-29T05:52:06;9.30;;;6.47;;
7289;SDS011;63176;52.678;13.250;2023-07-29T05:54:32;9.70;;;7.20;;
7289;SDS011;63176;52.678;13.250;2023-07-29T05:56:58;9.37;;;6.40;;
7289;SDS011;63176;52.678;13.250;2023-07-29T05:59:23;7.33;;;6.10;;
7289;SDS011;63176;52.678;13.250;2023-07-29T06:01:49;7.17;;;6.30;;
7289;SDS011;63176;52.678;13.250;2023-07-29T06:04:15;6.77;;;6.10;;
7289;SDS011;63176;52.678;13.250;2023-07-29T06:06:41;9.83;;;6.90;;
7289;SDS011;63176;52.678;13.250;2023-07-29T06:09:07;7.73;;;6.70;;
7289;SDS011;63176;52.678;13.250;2023-07-29T06:11:32;6.60;;;5.97;;
7289;SDS011;63176;52.678;13.250;2023-07-29T06:13:58;8.67;;;6.70;;
7289;SDS011;63176;52.678;13.250;2023-07-29T06:16:24;7.50;;;6.27;;
7289;SDS011;63176;52.678;13.250;2023-07-29T06:18:49;6.03;;;5.43;;
7289;SDS011;63176;52.678;13.250;2023-07-29T06:21:17;9.00;;;7.00;;
7289;SDS011;63176;52.678;13.250;2023-07-29T06:23:45;7.10;;;5.87;;
7289;SDS011;63176;52.678;13.250;2023-07-29T06:26:11;7.37;;;6.60;;
7289;SDS011;63176;52.678;13.250;2023-07-29T06:28:36;8.23;;;6.43;;
7289;SDS011;63176;52.678;13.250;2023-07-29T06:31:02;6.93;;;5.70;;
7289;SDS011;63176;52.678;13.250;2023-07-29T06:33:28;6.90;;;5.97;;
7289;SDS011;63176;52.678;13.250;2023-07-29T06:35:53;6.90;;;6.17;;
7289;SDS011;63176;52.678;13.250;2023-07-29T06:38:19;6.90;;;6.20;;
7289;SDS011;63176;52.678;13.250;2023-07-29T06:40:47;6.13;;;5.33;;
7289;SDS011;63176;52.678;13.250;2023-07-29T06:43:13;5.50;;;5.00;;
7289;SDS011;63176;52.678;13.250;2023-07-29T06:45:39;7.73;;;5.37;;
7289;SDS011;63176;52.678;13.250;2023-07-29T06:48:04;6.77;;;5.17;;
7289;SDS011;63176;52.678;13.250;2023-07-29T06:50:30;5.30;;;4.80;;
7289;SDS011;63176;52.678;13.250;2023-07-29T06:52:56;5.90;;;5.10;;
7289;SDS011;63176;52.678;13.250;2023-07-29T06:55:22;6.20;;;5.47;;
7289;SDS011;63176;52.678;13.250;2023-07-29T06:57:47;5.90;;;5.30;;
7289;SDS011;63176;52.678;13.250;2023-07-29T07:00:13;10.63;;;6.00;;
7289;SDS011;63176;52.678;13.250;2023-07-29T07:02:39;8.80;;;5.87;;
7289;SDS011;63176;52.678;13.250;2023-07-29T07:05:05;6.70;;;5.77;;
7289;SDS011;63176;52.678;13.250;2023-07-29T07:07:30;9.00;;;5.70;;
7289;SDS011;63176;52.678;13.250;2023-07-29T07:09:56;5.37;;;4.87;;
7289;SDS011;63176;52.678;13.250;2023-07-29T07:12:22;7.23;;;5.40;;
7289;SDS011;63176;52.678;13.250;2023-07-29T07:14:47;11.10;;;4.57;;
7289;SDS011;63176;52.678;13.250;2023-07-29T07:17:13;6.23;;;5.40;;
7289;SDS011;63176;52.678;13.250;2023-07-29T07:19:39;6.13;;;5.53;;
7289;SDS011;63176;52.678;13.250;2023-07-29T07:22:05;6.23;;;5.27;;
7289;SDS011;63176;52.678;13.250;2023-07-29T07:24:30;5.53;;;5.03;;
7289;SDS011;63176;52.678;13.250;2023-07-29T07:26:56;6.80;;;5.50;;
7289;SDS011;63176;52.678;13.250;2023-07-29T07:29:22;6.20;;;5.60;;
7289;SDS011;63176;52.678;13.250;2023-07-29T07:31:51;5.53;;;5.00;;
7289;SDS011;63176;52.678;13.250;2023-07-29T07:34:21;5.97;;;5.37;;
7289;SDS011;63176;52.678;13.250;2023-07-29T07:36:47;6.80;;;5.80;;
7289;SDS011;63176;52.678;13.250;2023-07-29T07:39:13;6.10;;;5.40;;
7289;SDS011;63176;52.678;13.250;2023-07-29T07:41:38;7.90;;;5.83;;
7289;SDS011;63176;52.678;13.250;2023-07-29T07:44:05;8.87;;;5.33;;
7289;SDS011;63176;52.678;13.250;2023-07-29T07:46:31;6.77;;;5.97;;
7289;SDS011;63176;52.678;13.250;2023-07-29T07:48:56;5.57;;;4.73;;
7289;SDS011;63176;52.678;13.250;2023-07-29T07:51:22;5.80;;;5.30;;
7289;SDS011;63176;52.678;13.250;2023-07-29T07:53:48;6.70;;;5.70;;
7289;SDS011;63176;52.678;13.250;2023-07-29T07:56:14;6.43;;;5.83;;
7289;SDS011;63176;52.678;13.250;2023-07-29T07:58:40;7.13;;;5.03;;
7289;SDS011;63176;52.678;13.250;2023-07-29T08:01:06;5.53;;;5.03;;
7289;SDS011;63176;52.678;13.250;2023-07-29T08:03:33;7.80;;;5.13;;
7289;SDS011;63176;52.678;13.250;2023-07-29T08:05:59;5.10;;;4.60;;
7289;SDS011;63176;52.678;13.250;2023-07-29T08:08:25;5.30;;;4.70;;
7289;SDS011;63176;52.678;13.250;2023-07-29T08:10:54;6.60;;;4.60;;
7289;SDS011;63176;52.678;13.250;2023-07-29T08:13:22;5.33;;;4.83;;
7289;SDS011;63176;52.678;13.250;2023-07-29T08:15:49;7.03;;;4.40;;
7289;SDS011;63176;52.678;13.250;2023-07-29T08:18:16;6.87;;;5.07;;
7289;SDS011;63176;52.678;13.250;2023-07-29T08:20:52;8.07;;;5.23;;
7289;SDS011;63176;52.678;13.250;2023-07-29T08:23:23;5.60;;;5.10;;
7289;SDS011;63176;52.678;13.250;2023-07-29T08:25:56;4.50;;;4.10;;
7289;SDS011;63176;52.678;13.250;2023-07-29T08:28:37;5.30;;;4.10;;
7289;SDS011;63176;52.678;13.250;2023-07-29T08:31:03;5.00;;;4.20;;
7289;SDS011;63176;52.678;13.250;2023-07-29T08:33:30;5.73;;;5.00;;
7289;SDS011;63176;52.678;13.250;2023-07-29T08:35:56;7.90;;;5.33;;
7289;SDS011;63176;52.678;13.250;2023-07-29T08:38:22;5.13;;;4.63;;
7289;SDS011;63176;52.678;13.250;2023-07-29T08:40:58;5.60;;;3.80;;
7289;SDS011;63176;52.678;13.250;2023-07-29T08:43:56;3.90;;;3.60;;
7289;SDS011;63176;52.678;13.250;2023-07-29T08:46:31;5.10;;;4.17;;
7289;SDS011;63176;52.678;13.250;2023-07-29T08:48:58;4.37;;;3.97;;
7289;SDS011;63176;52.678;13.250;2023-07-29T08:51:26;3.50;;;3.20;;
7289;SDS011;63176;52.678;13.250;2023-07-29T08:53:52;3.83;;;3.53;;
7289;SDS011;63176;52.678;13.250;2023-07-29T08:56:19;3.50;;;3.20;;
7289;SDS011;63176;52.678;13.250;2023-07-29T08:58:45;4.50;;;3.50;;
7289;SDS011;63176;52.678;13.250;2023-07-29T09:01:11;8.00;;;3.50;;
7289;SDS011;63176;52.678;13.250;2023-07-29T09:03:37;3.87;;;3.57;;
7289;SDS011;63176;52.678;13.250;2023-07-29T09:06:03;7.60;;;3.33;;
7289;SDS011;63176;52.678;13.250;2023-07-29T09:08:29;4.20;;;3.90;;
7289;SDS011;63176;52.678;13.250;2023-07-29T09:10:54;3.57;;;3.27;;
7289;SDS011;63176;52.678;13.250;2023-07-29T09:13:21;4.70;;;4.20;;
7289;SDS011;63176;52.678;13.250;2023-07-29T09:15:47;7.93;;;3.30;;
7289;SDS011;63176;52.678;13.250;2023-07-29T09:18:16;3.40;;;3.20;;
7289;SDS011;63176;52.678;13.250;2023-07-29T09:20:45;3.47;;;3.17;;
7289;SDS011;63176;52.678;13.250;2023-07-29T09:23:12;3.67;;;3.37;;
7289;SDS011;63176;52.678;13.250;2023-07-29T09:25:39;4.37;;;3.40;;
7289;SDS011;63176;52.678;13.250;2023-07-29T09:28:09;3.23;;;3.03;;
7289;SDS011;63176;52.678;13.250;2023-07-29T09:30:39;2.80;;;2.60;;
7289;SDS011;63176;52.678;13.250;2023-07-29T09:33:07;2.97;;;2.77;;
7289;SDS011;63176;52.678;13.250;2023-07-29T09:35:34;2.90;;;2.70;;
7289;SDS011;63176;52.678;13.250;2023-07-29T09:38:02;3.83;;;3.00;;
7289;SDS011;63176;52.678;13.250;2023-07-29T09:40:33;2.30;;;2.10;;
7289;SDS011;63176;52.678;13.250;2023-07-29T09:43:03;3.20;;;3.00;;
7289;SDS011;63176;52.678;13.250;2023-07-29T09:45:32;3.67;;;2.80;;
7289;SDS011;63176;52.678;13.250;2023-07-29T09:47:58;3.30;;;3.03;;
7289;SDS011;63176;52.678;13.250;2023-07-29T09:50:24;2.70;;;2.50;;
7289;SDS011;63176;52.678;13.250;2023-07-29T09:52:51;3.20;;;3.00;;
7289;SDS011;63176;52.678;13.250;2023-07-29T09:55:18;4.10;;;2.70;;
7289;SDS011;63176;52.678;13.250;2023-07-29T09:57:57;3.40;;;2.53;;
7289;SDS011;63176;52.678;13.250;2023-07-29T10:00:29;3.37;;;2.90;;
7289;SDS011;63176;52.678;13.250;2023-07-29T10:02:56;4.17;;;2.73;;
7289;SDS011;63176;52.678;13.250;2023-07-29T10:05:23;3.30;;;3.00;;
7289;SDS011;63176;52.678;13.250;2023-07-29T10:07:50;3.43;;;3.13;;
7289;SDS011;63176;52.678;13.250;2023-07-29T10:10:17;2.90;;;2.70;;
7289;SDS011;63176;52.678;13.250;2023-07-29T10:12:43;3.23;;;2.93;;
7289;SDS011;63176;52.678;13.250;2023-07-29T10:15:09;2.87;;;2.67;;
7289;SDS011;63176;52.678;13.250;2023-07-29T10:17:36;2.73;;;2.53;;
7289;SDS011;63176;52.678;13.250;2023-07-29T10:20:06;2.70;;;2.50;;
7289;SDS011;63176;52.678;13.250;2023-07-29T10:22:34;5.40;;;3.07;;
7289;SDS011;63176;52.678;13.250;2023-07-29T10:25:23;3.70;;;3.27;;
7289;SDS011;63176;52.678;13.250;2023-07-29T10:27:52;4.00;;;2.80;;
7289;SDS011;63176;52.678;13.250;2023-07-29T10:30:21;3.57;;;3.00;;
7289;SDS011;63176;52.678;13.250;2023-07-29T10:32:47;3.77;;;3.27;;
7289;SDS011;63176;52.678;13.250;2023-07-29T10:35:15;3.67;;;2.90;;
7289;SDS011;63176;52.678;13.250;2023-07-29T10:37:41;7.70;;;4.37;;
7289;SDS011;63176;52.678;13.250;2023-07-29T10:40:08;9.90;;;4.60;;
7289;SDS011;63176;52.678;13.250;2023-07-29T10:42:35;5.93;;;4.00;;
7289;SDS011;63176;52.678;13.250;2023-07-29T10:45:20;4.83;;;3.80;;
7289;SDS011;63176;52.678;13.250;2023-07-29T10:47:47;5.57;;;3.63;;
7289;SDS011;63176;52.678;13.250;2023-07-29T10:50:17;7.23;;;4.67;;
7289;SDS011;63176;52.678;13.250;2023-07-29T10:52:44;5.73;;;4.07;;
7289;SDS011;63176;52.678;13.250;2023-07-29T10:55:27;5.10;;;4.43;;
7289;SDS011;63176;52.678;13.250;2023-07-29T10:58:06;7.70;;;4.50;;
7289;SDS011;63176;52.678;13.250;2023-07-29T11:00:43;4.33;;;3.93;;
7289;SDS011;63176;52.678;13.250;2023-07-29T11:03:11;6.23;;;4.70;;
7289;SDS011;63176;52.678;13.250;2023-07-29T11:05:43;7.20;;;4.23;;
7289;SDS011;63176;52.678;13.250;2023-07-29T11:08:20;4.00;;;3.60;;
7289;SDS011;63176;52.678;13.250;2023-07-29T11:13:28;8.53;;;4.10;;
7289;SDS011;63176;52.678;13.250;2023-07-29T11:15:58;11.93;;;3.70;;
7289;SDS011;63176;52.678;13.250;2023-07-29T11:18:31;6.10;;;4.67;;
7289;SDS011;63176;52.678;13.250;2023-07-29T11:20:59;5.70;;;3.70;;
7289;SDS011;63176;52.678;13.250;2023-07-29T11:23:32;6.43;;;3.80;;
7289;SDS011;63176;52.678;13.250;2023-07-29T11:26:00;8.23;;;4.10;;
7289;SDS011;63176;52.678;13.250;2023-07-29T11:28:26;7.10;;;3.90;;
7289;SDS011;63176;52.678;13.250;2023-07-29T11:30:56;5.67;;;4.30;;
7289;SDS011;63176;52.678;13.250;2023-07-29T11:33:26;6.83;;;4.40;;
7289;SDS011;63176;52.678;13.250;2023-07-29T11:35:53;4.53;;;4.10;;
7289;SDS011;63176;52.678;13.250;2023-07-29T11:38:20;7.57;;;4.33;;
7289;SDS011;63176;52.678;13.250;2023-07-29T11:43:25;7.00;;;4.80;;
7289;SDS011;63176;52.678;13.250;2023-07-29T11:45:51;7.07;;;5.13;;
7289;SDS011;63176;52.678;13.250;2023-07-29T11:48:18;6.67;;;4.37;;
7289;SDS011;63176;52.678;13.250;2023-07-29T11:50:50;5.60;;;4.80;;
7289;SDS011;63176;52.678;13.250;2023-07-29T11:53:18;8.10;;;4.73;;
7289;SDS011;63176;52.678;13.250;2023-07-29T11:55:44;4.37;;;3.90;;
7289;SDS011;63176;52.678;13.250;2023-07-29T11:58:09;7.40;;;5.73;;
7289;SDS011;63176;52.678;13.250;2023-07-29T12:00:35;6.50;;;4.93;;
7289;SDS011;63176;52.678;13.250;2023-07-29T12:03:02;7.53;;;5.87;;
7289;SDS011;63176;52.678;13.250;2023-07-29T12:05:28;6.03;;;4.67;;
7289;SDS011;63176;52.678;13.250;2023-07-29T12:07:55;5.93;;;4.67;;
7289;SDS011;63176;52.678;13.250;2023-07-29T12:10:21;7.03;;;4.73;;
7289;SDS011;63176;52.678;13.250;2023-07-29T12:12:50;5.93;;;4.50;;
7289;SDS011;63176;52.678;13.250;2023-07-29T12:15:23;5.53;;;4.37;;
7289;SDS011;63176;52.678;13.250;2023-07-29T12:17:52;9.40;;;4.33;;
7289;SDS011;63176;52.678;13.250;2023-07-29T12:20:20;4.20;;;3.80;;
7289;SDS011;63176;52.678;13.250;2023-07-29T12:22:51;5.20;;;4.70;;
7289;SDS011;63176;52.678;13.250;2023-07-29T12:25:20;5.77;;;4.83;;
7289;SDS011;63176;52.678;13.250;2023-07-29T12:27:47;7.77;;;4.77;;
7289;SDS011;63176;52.678;13.250;2023-07-29T12:30:12;9.37;;;4.80;;
7289;SDS011;63176;52.678;13.250;2023-07-29T12:32:45;5.60;;;4.37;;
7289;SDS011;63176;52.678;13.250;2023-07-29T12:35:11;5.90;;;4.23;;
7289;SDS011;63176;52.678;13.250;2023-07-29T12:37:38;3.67;;;3.27;;
7289;SDS011;63176;52.678;13.250;2023-07-29T12:40:07;3.57;;;3.27;;
7289;SDS011;63176;52.678;13.250;2023-07-29T12:42:34;3.50;;;3.20;;
7289;SDS011;63176;52.678;13.250;2023-07-29T12:45:00;3.23;;;2.90;;
7289;SDS011;63176;52.678;13.250;2023-07-29T12:47:26;2.73;;;2.53;;
7289;SDS011;63176;52.678;13.250;2023-07-29T12:49:51;3.70;;;2.20;;
7289;SDS011;63176;52.678;13.250;2023-07-29T12:52:17;2.30;;;2.10;;
7289;SDS011;63176;52.678;13.250;2023-07-29T12:54:43;2.50;;;2.10;;
7289;SDS011;63176;52.678;13.250;2023-07-29T12:57:09;2.37;;;2.10;;
7289;SDS011;63176;52.678;13.250;2023-07-29T12:59:35;2.37;;;2.17;;
7289;SDS011;63176;52.678;13.250;2023-07-29T13:02:00;4.13;;;2.40;;
7289;SDS011;63176;52.678;13.250;2023-07-29T13:04:26;2.50;;;2.30;;
7289;SDS011;63176;52.678;13.250;2023-07-29T13:06:51;5.60;;;2.20;;
7289;SDS011;63176;52.678;13.250;2023-07-29T13:09:17;2.77;;;2.57;;
7289;SDS011;63176;52.678;13.250;2023-07-29T13:11:43;2.53;;;2.33;;
7289;SDS011;63176;52.678;13.250;2023-07-29T13:14:08;2.20;;;2.10;;
7289;SDS011;63176;52.678;13.250;2023-07-29T13:16:34;1.87;;;1.77;;
7289;SDS011;63176;52.678;13.250;2023-07-29T13:19:00;3.30;;;1.90;;
7289;SDS011;63176;52.678;13.250;2023-07-29T13:21:25;4.33;;;1.37;;
7289;SDS011;63176;52.678;13.250;2023-07-29T13:23:51;9.03;;;1.90;;
7289;SDS011;63176;52.678;13.250;2023-07-29T13:26:20;2.17;;;1.97;;
7289;SDS011;63176;52.678;13.250;2023-07-29T13:28:46;2.03;;;1.93;;
7289;SDS011;63176;52.678;13.250;2023-07-29T13:31:11;1.60;;;1.50;;
7289;SDS011;63176;52.678;13.250;2023-07-29T13:33:38;1.90;;;1.80;;
7289;SDS011;63176;52.678;13.250;2023-07-29T13:36:03;1.50;;;1.40;;
7289;SDS011;63176;52.678;13.250;2023-07-29T13:38:30;1.77;;;1.67;;
7289;SDS011;63176;52.678;13.250;2023-07-29T13:40:56;3.10;;;1.13;;
7289;SDS011;63176;52.678;13.250;2023-07-29T13:43:21;1.40;;;1.30;;
7289;SDS011;63176;52.678;13.250;2023-07-29T13:45:47;2.50;;;1.90;;
7289;SDS011;63176;52.678;13.250;2023-07-29T13:48:15;1.77;;;1.17;;
7289;SDS011;63176;52.678;13.250;2023-07-29T13:50:42;1.50;;;1.40;;
7289;SDS011;63176;52.678;13.250;2023-07-29T13:53:08;1.40;;;1.30;;
7289;SDS011;63176;52.678;13.250;2023-07-29T13:55:34;1.53;;;1.43;;
7289;SDS011;63176;52.678;13.250;2023-07-29T13:58:00;1.33;;;1.23;;
7289;SDS011;63176;52.678;13.250;2023-07-29T14:00:26;2.50;;;1.37;;
7289;SDS011;63176;52.678;13.250;2023-07-29T14:02:51;2.60;;;0.90;;
7289;SDS011;63176;52.678;13.250;2023-07-29T14:05:17;1.30;;;1.20;;
7289;SDS011;63176;52.678;13.250;2023-07-29T14:07:43;1.13;;;1.10;;
7289;SDS011;63176;52.678;13.250;2023-07-29T14:10:08;1.30;;;1.20;;
7289;SDS011;63176;52.678;13.250;2023-07-29T14:12:34;3.33;;;1.10;;
7289;SDS011;63176;52.678;13.250;2023-07-29T14:15:00;1.30;;;1.20;;
7289;SDS011;63176;52.678;13.250;2023-07-29T14:17:26;3.87;;;0.83;;
7289;SDS011;63176;52.678;13.250;2023-07-29T14:19:51;1.20;;;1.10;;
7289;SDS011;63176;52.678;13.250;2023-07-29T14:22:17;2.73;;;0.90;;
7289;SDS011;63176;52.678;13.250;2023-07-29T14:24:43;8.20;;;1.03;;
7289;SDS011;63176;52.678;13.250;2023-07-29T14:27:08;1.47;;;1.37;;
7289;SDS011;63176;52.678;13.250;2023-07-29T14:29:34;2.63;;;0.90;;
7289;SDS011;63176;52.678;13.250;2023-07-29T14:32:00;2.47;;;0.83;;
7289;SDS011;63176;52.678;13.250;2023-07-29T14:34:25;1.87;;;1.23;;
7289;SDS011;63176;52.678;13.250;2023-07-29T14:36:51;0.80;;;0.80;;
7289;SDS011;63176;52.678;13.250;2023-07-29T14:39:17;0.70;;;0.70;;
7289;SDS011;63176;52.678;13.250;2023-07-29T14:41:42;1.10;;;0.97;;
7289;SDS011;63176;52.678;13.250;2023-07-29T14:44:08;0.80;;;0.80;;
7289;SDS011;63176;52.678;13.250;2023-07-29T14:46:34;0.80;;;0.80;;
7289;SDS011;63176;52.678;13.250;2023-07-29T14:48:59;1.13;;;0.70;;
7289;SDS011;63176;52.678;13.250;2023-07-29T14:51:25;0.80;;;0.73;;
7289;SDS011;63176;52.678;13.250;2023-07-29T14:53:51;1.70;;;1.20;;
7289;SDS011;63176;52.678;13.250;2023-07-29T14:56:16;1.20;;;0.90;;
7289;SDS011;63176;52.678;13.250;2023-07-29T14:58:43;1.67;;;0.80;;
7289;SDS011;63176;52.678;13.250;2023-07-29T15:01:08;0.80;;;0.80;;
7289;SDS011;63176;52.678;13.250;2023-07-29T15:03:34;1.10;;;1.00;;
7289;SDS011;63176;52.678;13.250;2023-07-29T15:06:00;3.00;;;0.90;;
7289;SDS011;63176;52.678;13.250;2023-07-29T15:08:27;1.13;;;1.10;;